Terminal Aerodrome Forecast
Issued by NWS Tulsa, OK

Home | Current Version | Previous Version | Text Only | Print | Product List | Glossary On
Versions: 1 2 3 4 5 6 7 8 9 10 11 12 13 14 15 16 17 18 19 20 21 22 23 24 25 26 27 28 29 30
000
FTUS44 KTSA 240900 AAB
TAFTUL
TAF AMD
KTUL 240954Z 2410/2506 20008KT 5SM -RA BKN007 OVC120
     FM241800 17010KT 5SM RA OVC015
     FM250000 17008KT P6SM BKN025 PROB30 2500/2506 6SM -RA BKN015=

USA.gov is the U.S. government's official web portal to all federal, state and local government web resources and services.